sensor_id;sensor_type;location;lat;lon;timestamp;pressure;altitude;pressure_sealevel;temperature;humidity
2675;BME280;1347;42.122;24.746;2024-01-11T00:01:21;100729.88;;;-1.92;100.00
2675;BME280;1347;42.122;24.746;2024-01-11T00:03:48;100714.81;;;-1.98;100.00
2675;BME280;1347;42.122;24.746;2024-01-11T00:06:16;100724.41;;;-2.07;100.00
2675;BME280;1347;42.122;24.746;2024-01-11T00:08:43;100717.72;;;-2.05;100.00
2675;BME280;1347;42.122;24.746;2024-01-11T00:11:10;100714.47;;;-2.07;100.00
2675;BME280;1347;42.122;24.746;2024-01-11T00:13:37;100712.84;;;-2.08;100.00
2675;BME280;1347;42.122;24.746;2024-01-11T00:16:04;100713.69;;;-2.02;100.00
2675;BME280;1347;42.122;24.746;2024-01-11T00:18:31;100711.81;;;-2.02;100.00
2675;BME280;1347;42.122;24.746;2024-01-11T00:20:57;100715.06;;;-2.00;100.00
2675;BME280;1347;42.122;24.746;2024-01-11T00:23:26;100718.84;;;-1.96;100.00
2675;BME280;1347;42.122;24.746;2024-01-11T00:25:53;100704.22;;;-2.10;100.00
2675;BME280;1347;42.122;24.746;2024-01-11T00:28:19;100700.31;;;-1.97;100.00
2675;BME280;1347;42.122;24.746;2024-01-11T00:30:46;100703.25;;;-1.99;100.00
2675;BME280;1347;42.122;24.746;2024-01-11T00:33:13;100696.81;;;-1.98;100.00
2675;BME280;1347;42.122;24.746;2024-01-11T00:35:40;100688.44;;;-2.01;100.00
2675;BME280;1347;42.122;24.746;2024-01-11T00:38:07;100684.41;;;-2.04;100.00
2675;BME280;1347;42.122;24.746;2024-01-11T00:40:35;100683.59;;;-2.04;100.00
2675;BME280;1347;42.122;24.746;2024-01-11T00:43:02;100681.44;;;-2.02;100.00
2675;BME280;1347;42.122;24.746;2024-01-11T00:45:29;100678.75;;;-2.07;100.00
2675;BME280;1347;42.122;24.746;2024-01-11T00:47:56;100673.44;;;-1.97;100.00
2675;BME280;1347;42.122;24.746;2024-01-11T00:50:23;100670.44;;;-2.01;100.00
2675;BME280;1347;42.122;24.746;2024-01-11T00:52:49;100662.63;;;-2.02;100.00
2675;BME280;1347;42.122;24.746;2024-01-11T00:55:16;100658.63;;;-2.00;100.00
2675;BME280;1347;42.122;24.746;2024-01-11T00:57:44;100650.00;;;-2.02;100.00
2675;BME280;1347;42.122;24.746;2024-01-11T01:00:12;100645.72;;;-2.03;100.00
2675;BME280;1347;42.122;24.746;2024-01-11T01:02:40;100651.13;;;-1.98;100.00
2675;BME280;1347;42.122;24.746;2024-01-11T01:05:08;100653.50;;;-2.01;100.00
2675;BME280;1347;42.122;24.746;2024-01-11T01:07:35;100655.13;;;-2.00;100.00
2675;BME280;1347;42.122;24.746;2024-01-11T01:10:02;100647.00;;;-2.10;100.00
2675;BME280;1347;42.122;24.746;2024-01-11T01:12:29;100649.88;;;-2.22;100.00
2675;BME280;1347;42.122;24.746;2024-01-11T01:14:57;100646.59;;;-2.34;100.00
2675;BME280;1347;42.122;24.746;2024-01-11T01:17:24;100638.72;;;-2.41;100.00
2675;BME280;1347;42.122;24.746;2024-01-11T01:19:51;100639.69;;;-2.52;100.00
2675;BME280;1347;42.122;24.746;2024-01-11T01:22:18;100635.88;;;-2.61;100.00
2675;BME280;1347;42.122;24.746;2024-01-11T01:24:44;100633.59;;;-2.74;100.00
2675;BME280;1347;42.122;24.746;2024-01-11T01:27:11;100634.03;;;-2.87;100.00
2675;BME280;1347;42.122;24.746;2024-01-11T01:29:38;100630.94;;;-3.01;100.00
2675;BME280;1347;42.122;24.746;2024-01-11T01:32:06;100621.75;;;-3.05;100.00
2675;BME280;1347;42.122;24.746;2024-01-11T01:34:33;100624.81;;;-2.97;100.00
2675;BME280;1347;42.122;24.746;2024-01-11T01:37:00;100618.38;;;-2.95;100.00
2675;BME280;1347;42.122;24.746;2024-01-11T01:39:27;100617.81;;;-2.98;100.00
2675;BME280;1347;42.122;24.746;2024-01-11T01:41:53;100618.63;;;-2.97;100.00
2675;BME280;1347;42.122;24.746;2024-01-11T01:44:20;100615.31;;;-3.04;100.00
2675;BME280;1347;42.122;24.746;2024-01-11T01:46:47;100608.63;;;-3.07;100.00
2675;BME280;1347;42.122;24.746;2024-01-11T01:49:16;100602.22;;;-3.01;100.00
2675;BME280;1347;42.122;24.746;2024-01-11T01:51:48;100605.41;;;-3.04;100.00
2675;BME280;1347;42.122;24.746;2024-01-11T01:54:16;100604.41;;;-2.98;100.00
2675;BME280;1347;42.122;24.746;2024-01-11T01:56:43;100597.94;;;-3.02;100.00
2675;BME280;1347;42.122;24.746;2024-01-11T01:59:10;100590.75;;;-2.96;100.00
2675;BME280;1347;42.122;24.746;2024-01-11T02:01:38;100591.28;;;-2.94;100.00
2675;BME280;1347;42.122;24.746;2024-01-11T02:04:05;100592.41;;;-2.90;100.00
2675;BME280;1347;42.122;24.746;2024-01-11T02:06:34;100585.69;;;-2.92;100.00
2675;BME280;1347;42.122;24.746;2024-01-11T02:09:01;100585.63;;;-2.98;100.00
2675;BME280;1347;42.122;24.746;2024-01-11T02:11:30;100583.53;;;-2.95;100.00
2675;BME280;1347;42.122;24.746;2024-01-11T02:13:57;100577.88;;;-2.94;100.00
2675;BME280;1347;42.122;24.746;2024-01-11T02:16:24;100584.03;;;-2.99;100.00
2675;BME280;1347;42.122;24.746;2024-01-11T02:18:51;100579.00;;;-2.90;100.00
2675;BME280;1347;42.122;24.746;2024-01-11T02:21:18;100573.06;;;-2.92;100.00
2675;BME280;1347;42.122;24.746;2024-01-11T02:23:54;100574.38;;;-2.94;100.00
2675;BME280;1347;42.122;24.746;2024-01-11T02:26:21;100561.25;;;-2.96;100.00
2675;BME280;1347;42.122;24.746;2024-01-11T02:28:47;100565.53;;;-2.95;100.00
2675;BME280;1347;42.122;24.746;2024-01-11T02:31:14;100566.91;;;-2.92;100.00
2675;BME280;1347;42.122;24.746;2024-01-11T02:33:42;100564.19;;;-2.98;100.00
2675;BME280;1347;42.122;24.746;2024-01-11T02:36:09;100569.09;;;-2.89;100.00
2675;BME280;1347;42.122;24.746;2024-01-11T02:38:35;100564.88;;;-2.80;100.00
2675;BME280;1347;42.122;24.746;2024-01-11T02:41:05;100566.91;;;-2.92;100.00
2675;BME280;1347;42.122;24.746;2024-01-11T02:43:32;100565.91;;;-2.86;100.00
2675;BME280;1347;42.122;24.746;2024-01-11T02:46:01;100570.19;;;-2.85;100.00
2675;BME280;1347;42.122;24.746;2024-01-11T02:48:28;100562.41;;;-2.87;100.00
2675;BME280;1347;42.122;24.746;2024-01-11T02:50:55;100570.38;;;-2.92;100.00
2675;BME280;1347;42.122;24.746;2024-01-11T02:53:22;100569.09;;;-2.89;100.00
2675;BME280;1347;42.122;24.746;2024-01-11T02:55:49;100566.44;;;-2.84;100.00
2675;BME280;1347;42.122;24.746;2024-01-11T02:58:18;100570.22;;;-2.80;100.00
2675;BME280;1347;42.122;24.746;2024-01-11T03:00:45;100564.28;;;-2.87;100.00
2675;BME280;1347;42.122;24.746;2024-01-11T03:03:12;100567.00;;;-2.82;100.00
2675;BME280;1347;42.122;24.746;2024-01-11T03:05:39;100566.19;;;-2.83;100.00
2675;BME280;1347;42.122;24.746;2024-01-11T03:08:06;100564.88;;;-2.80;100.00
2675;BME280;1347;42.122;24.746;2024-01-11T03:10:33;100560.06;;;-2.78;100.00
2675;BME280;1347;42.122;24.746;2024-01-11T03:13:00;100562.75;;;-2.78;100.00
2675;BME280;1347;42.122;24.746;2024-01-11T03:15:28;100558.47;;;-2.74;100.00
2675;BME280;1347;42.122;24.746;2024-01-11T03:17:55;100552.81;;;-2.78;100.00
2675;BME280;1347;42.122;24.746;2024-01-11T03:20:21;100548.81;;;-2.75;100.00
2675;BME280;1347;42.122;24.746;2024-01-11T03:22:50;100553.88;;;-2.79;100.00
2675;BME280;1347;42.122;24.746;2024-01-11T03:25:17;100546.16;;;-2.70;100.00
2675;BME280;1347;42.122;24.746;2024-01-11T03:27:44;100553.63;;;-2.77;100.00
2675;BME280;1347;42.122;24.746;2024-01-11T03:30:12;100548.19;;;-2.87;100.00
2675;BME280;1347;42.122;24.746;2024-01-11T03:32:41;100551.41;;;-2.85;100.00
2675;BME280;1347;42.122;24.746;2024-01-11T03:35:08;100551.69;;;-2.82;100.00
2675;BME280;1347;42.122;24.746;2024-01-11T03:37:35;100552.72;;;-2.88;100.00
2675;BME280;1347;42.122;24.746;2024-01-11T03:40:03;100542.28;;;-2.84;100.00
2675;BME280;1347;42.122;24.746;2024-01-11T03:42:30;100542.25;;;-2.89;100.00
2675;BME280;1347;42.122;24.746;2024-01-11T03:44:57;100534.16;;;-2.94;100.00
2675;BME280;1347;42.122;24.746;2024-01-11T03:47:23;100541.91;;;-2.98;100.00
2675;BME280;1347;42.122;24.746;2024-01-11T03:49:52;100540.53;;;-3.01;100.00
2675;BME280;1347;42.122;24.746;2024-01-11T03:52:18;100537.13;;;-2.96;100.00
2675;BME280;1347;42.122;24.746;2024-01-11T03:54:45;100538.97;;;-2.97;100.00
2675;BME280;1347;42.122;24.746;2024-01-11T03:57:12;100531.09;;;-3.08;100.00
2675;BME280;1347;42.122;24.746;2024-01-11T03:59:39;100528.06;;;-3.17;100.00
2675;BME280;1347;42.122;24.746;2024-01-11T04:02:06;100536.16;;;-3.12;100.00
2675;BME280;1347;42.122;24.746;2024-01-11T04:04:33;100525.41;;;-3.17;100.00
2675;BME280;1347;42.122;24.746;2024-01-11T04:07:01;100520.44;;;-3.30;100.00
2675;BME280;1347;42.122;24.746;2024-01-11T04:09:28;100517.34;;;-3.44;100.00
2675;BME280;1347;42.122;24.746;2024-01-11T04:11:55;100519.47;;;-3.46;100.00
2675;BME280;1347;42.122;24.746;2024-01-11T04:14:22;100522.84;;;-3.55;100.00
2675;BME280;1347;42.122;24.746;2024-01-11T04:16:49;100515.78;;;-3.66;100.00
2675;BME280;1347;42.122;24.746;2024-01-11T04:19:15;100514.28;;;-3.79;100.00
2675;BME280;1347;42.122;24.746;2024-01-11T04:21:42;100506.38;;;-3.91;100.00
2675;BME280;1347;42.122;24.746;2024-01-11T04:24:10;100512.19;;;-3.99;100.00
2675;BME280;1347;42.122;24.746;2024-01-11T04:26:37;100519.16;;;-3.98;100.00
2675;BME280;1347;42.122;24.746;2024-01-11T04:29:04;100512.44;;;-4.00;100.00
2675;BME280;1347;42.122;24.746;2024-01-11T04:31:31;100512.09;;;-4.04;100.00
2675;BME280;1347;42.122;24.746;2024-01-11T04:33:59;100511.06;;;-4.03;100.00
2675;BME280;1347;42.122;24.746;2024-01-11T04:36:25;100508.03;;;-4.07;100.00
2675;BME280;1347;42.122;24.746;2024-01-11T04:38:52;100509.25;;;-4.19;100.00
2675;BME280;1347;42.122;24.746;2024-01-11T04:41:20;100509.31;;;-4.14;100.00
2675;BME280;1347;42.122;24.746;2024-01-11T04:43:47;100509.00;;;-4.18;100.00
2675;BME280;1347;42.122;24.746;2024-01-11T04:46:15;100510.53;;;-4.22;100.00
2675;BME280;1347;42.122;24.746;2024-01-11T04:48:43;100505.19;;;-4.22;100.00
2675;BME280;1347;42.122;24.746;2024-01-11T04:51:10;100502.06;;;-4.14;100.00
2675;BME280;1347;42.122;24.746;2024-01-11T04:53:37;100506.69;;;-4.09;100.00
2675;BME280;1347;42.122;24.746;2024-01-11T04:56:06;100513.00;;;-3.98;100.00
2675;BME280;1347;42.122;24.746;2024-01-11T04:58:34;100501.09;;;-4.07;100.00
2675;BME280;1347;42.122;24.746;2024-01-11T05:01:02;100503.50;;;-4.06;100.00
2675;BME280;1347;42.122;24.746;2024-01-11T05:03:29;100496.03;;;-4.04;100.00
2675;BME280;1347;42.122;24.746;2024-01-11T05:05:57;100497.16;;;-4.00;100.00
2675;BME280;1347;42.122;24.746;2024-01-11T05:08:25;100495.34;;;-3.94;100.00
2675;BME280;1347;42.122;24.746;2024-01-11T05:10:52;100493.19;;;-3.97;100.00
2675;BME280;1347;42.122;24.746;2024-01-11T05:13:18;100496.97;;;-3.93;100.00
2675;BME280;1347;42.122;24.746;2024-01-11T05:15:47;100490.50;;;-3.97;100.00
2675;BME280;1347;42.122;24.746;2024-01-11T05:18:14;100488.94;;;-3.93;100.00
2675;BME280;1347;42.122;24.746;2024-01-11T05:20:41;100489.25;;;-3.90;100.00
2675;BME280;1347;42.122;24.746;2024-01-11T05:23:07;100491.69;;;-3.88;100.00
2675;BME280;1347;42.122;24.746;2024-01-11T05:25:34;100486.09;;;-3.87;100.00
2675;BME280;1347;42.122;24.746;2024-01-11T05:28:02;100489.88;;;-3.83;100.00
2675;BME280;1347;42.122;24.746;2024-01-11T05:30:29;100488.81;;;-3.82;100.00
2675;BME280;1347;42.122;24.746;2024-01-11T05:32:58;100489.94;;;-3.78;100.00
2675;BME280;1347;42.122;24.746;2024-01-11T05:35:25;100476.78;;;-3.79;100.00
2675;BME280;1347;42.122;24.746;2024-01-11T05:37:52;100476.25;;;-3.76;100.00
2675;BME280;1347;42.122;24.746;2024-01-11T05:40:20;100480.56;;;-3.75;100.00
2675;BME280;1347;42.122;24.746;2024-01-11T05:42:47;100476.91;;;-3.69;100.00
2675;BME280;1347;42.122;24.746;2024-01-11T05:45:14;100477.75;;;-3.63;100.00
2675;BME280;1347;42.122;24.746;2024-01-11T05:47:42;100482.53;;;-3.65;100.00
2675;BME280;1347;42.122;24.746;2024-01-11T05:50:11;100483.09;;;-3.63;100.00
2675;BME280;1347;42.122;24.746;2024-01-11T05:52:38;100473.66;;;-3.71;100.00
2675;BME280;1347;42.122;24.746;2024-01-11T05:55:05;100473.88;;;-3.78;100.00
2675;BME280;1347;42.122;24.746;2024-01-11T05:57:32;100474.59;;;-3.82;100.00
2675;BME280;1347;42.122;24.746;2024-01-11T05:59:59;100462.84;;;-3.81;100.00
2675;BME280;1347;42.122;24.746;2024-01-11T06:02:25;100473.63;;;-3.98;100.00
2675;BME280;1347;42.122;24.746;2024-01-11T06:04:52;100475.06;;;-3.90;100.00
2675;BME280;1347;42.122;24.746;2024-01-11T06:07:20;100469.69;;;-3.90;100.00
2675;BME280;1347;42.122;24.746;2024-01-11T06:09:47;100474.81;;;-3.89;100.00
2675;BME280;1347;42.122;24.746;2024-01-11T06:12:14;100468.50;;;-3.78;100.00
2675;BME280;1347;42.122;24.746;2024-01-11T06:14:41;100462.94;;;-3.71;100.00
2675;BME280;1347;42.122;24.746;2024-01-11T06:17:08;100463.59;;;-3.59;100.00
2675;BME280;1347;42.122;24.746;2024-01-11T06:19:36;100465.81;;;-3.51;100.00
2675;BME280;1347;42.122;24.746;2024-01-11T06:22:04;100460.81;;;-3.42;100.00
2675;BME280;1347;42.122;24.746;2024-01-11T06:27:53;100453.34;;;-3.35;100.00
2675;BME280;1347;42.122;24.746;2024-01-11T06:33:42;100456.75;;;-3.18;100.00
2675;BME280;1347;42.122;24.746;2024-01-11T06:39:31;100455.56;;;-2.95;100.00
2675;BME280;1347;42.122;24.746;2024-01-11T06:41:58;100456.41;;;-2.89;100.00
2675;BME280;1347;42.122;24.746;2024-01-11T06:44:26;100454.78;;;-2.95;100.00
2675;BME280;1347;42.122;24.746;2024-01-11T06:46:53;100457.81;;;-2.82;100.00
2675;BME280;1347;42.122;24.746;2024-01-11T06:49:20;100455.41;;;-2.78;100.00
2675;BME280;1347;42.122;24.746;2024-01-11T06:51:47;100447.66;;;-2.75;100.00
2675;BME280;1347;42.122;24.746;2024-01-11T06:54:14;100447.19;;;-2.67;100.00
2675;BME280;1347;42.122;24.746;2024-01-11T06:56:41;100455.97;;;-2.76;100.00
2675;BME280;1347;42.122;24.746;2024-01-11T06:59:07;100450.44;;;-2.60;100.00
2675;BME280;1347;42.122;24.746;2024-01-11T07:01:36;100449.16;;;-2.47;100.00
2675;BME280;1347;42.122;24.746;2024-01-11T07:04:03;100460.47;;;-2.45;100.00
2675;BME280;1347;42.122;24.746;2024-01-11T07:06:30;100451.66;;;-2.35;100.00
2675;BME280;1347;42.122;24.746;2024-01-11T07:08:56;100455.66;;;-2.33;100.00
2675;BME280;1347;42.122;24.746;2024-01-11T07:11:23;100453.22;;;-2.44;100.00
2675;BME280;1347;42.122;24.746;2024-01-11T07:13:50;100461.03;;;-2.38;100.00
2675;BME280;1347;42.122;24.746;2024-01-11T07:16:17;100455.63;;;-2.43;100.00
2675;BME280;1347;42.122;24.746;2024-01-11T07:18:45;100463.50;;;-2.26;100.00
2675;BME280;1347;42.122;24.746;2024-01-11T07:21:12;100456.72;;;-2.34;100.00
2675;BME280;1347;42.122;24.746;2024-01-11T07:23:39;100457.63;;;-2.13;100.00
2675;BME280;1347;42.122;24.746;2024-01-11T07:26:05;100453.34;;;-2.14;100.00
2675;BME280;1347;42.122;24.746;2024-01-11T07:28:32;100449.66;;;-1.98;100.00
2675;BME280;1347;42.122;24.746;2024-01-11T07:30:59;100446.69;;;-1.91;100.00
2675;BME280;1347;42.122;24.746;2024-01-11T07:33:26;100446.47;;;-1.84;100.00
2675;BME280;1347;42.122;24.746;2024-01-11T07:35:54;100451.53;;;-1.93;100.00
2675;BME280;1347;42.122;24.746;2024-01-11T07:38:21;100443.22;;;-1.87;100.00
2675;BME280;1347;42.122;24.746;2024-01-11T07:44:09;100437.28;;;-0.42;100.00
2675;BME280;1347;42.122;24.746;2024-01-11T07:46:36;100432.00;;;3.31;100.00
2675;BME280;1347;42.122;24.746;2024-01-11T07:49:03;100439.06;;;6.61;84.49
2675;BME280;1347;42.122;24.746;2024-01-11T07:51:31;100445.06;;;8.12;69.91
2675;BME280;1347;42.122;24.746;2024-01-11T07:53:58;100437.94;;;11.57;56.98
2675;BME280;1347;42.122;24.746;2024-01-11T07:56:26;100445.69;;;14.17;51.28
2675;BME280;1347;42.122;24.746;2024-01-11T08:02:14;100450.16;;;17.52;38.16
2675;BME280;1347;42.122;24.746;2024-01-11T08:04:41;100462.44;;;18.64;37.13
2675;BME280;1347;42.122;24.746;2024-01-11T08:07:09;100457.53;;;19.80;34.37
2675;BME280;1347;42.122;24.746;2024-01-11T08:09:36;100451.31;;;18.75;32.67
2675;BME280;1347;42.122;24.746;2024-01-11T08:12:10;100441.72;;;18.94;33.27
2675;BME280;1347;42.122;24.746;2024-01-11T08:17:59;100445.69;;;22.03;31.08
2675;BME280;1347;42.122;24.746;2024-01-11T08:23:48;100432.47;;;22.08;29.50
2675;BME280;1347;42.122;24.746;2024-01-11T08:26:15;100430.84;;;22.30;28.20
2675;BME280;1347;42.122;24.746;2024-01-11T08:28:44;100426.56;;;21.25;28.96
2675;BME280;1347;42.122;24.746;2024-01-11T08:31:11;100415.63;;;20.43;29.42
2675;BME280;1347;42.122;24.746;2024-01-11T08:33:38;100428.50;;;23.27;28.29
2675;BME280;1347;42.122;24.746;2024-01-11T08:36:05;100424.88;;;22.91;27.71
2675;BME280;1347;42.122;24.746;2024-01-11T08:38:33;100431.13;;;23.70;27.10
2675;BME280;1347;42.122;24.746;2024-01-11T08:41:02;100423.25;;;23.98;26.52
2675;BME280;1347;42.122;24.746;2024-01-11T08:43:29;100420.50;;;23.45;26.79
2675;BME280;1347;42.122;24.746;2024-01-11T08:45:57;100409.19;;;22.37;28.21
2675;BME280;1347;42.122;24.746;2024-01-11T08:48:24;100407.41;;;22.87;27.76
2675;BME280;1347;42.122;24.746;2024-01-11T08:50:51;100412.53;;;23.44;28.01
2675;BME280;1347;42.122;24.746;2024-01-11T08:53:18;100399.00;;;22.47;28.14
2675;BME280;1347;42.122;24.746;2024-01-11T08:55:45;100394.53;;;21.60;29.35
2675;BME280;1347;42.122;24.746;2024-01-11T08:58:14;100388.97;;;20.76;29.20
2675;BME280;1347;42.122;24.746;2024-01-11T09:00:40;100382.69;;;18.65;31.74
2675;BME280;1347;42.122;24.746;2024-01-11T09:03:08;100367.28;;;19.26;31.50
2675;BME280;1347;42.122;24.746;2024-01-11T09:05:37;100370.75;;;18.75;31.76
2675;BME280;1347;42.122;24.746;2024-01-11T09:08:04;100365.94;;;18.90;31.63
2675;BME280;1347;42.122;24.746;2024-01-11T09:10:32;100353.41;;;16.79;34.89
2675;BME280;1347;42.122;24.746;2024-01-11T09:12:59;100353.13;;;17.27;33.31
2675;BME280;1347;42.122;24.746;2024-01-11T09:15:27;100345.25;;;17.75;33.87
2675;BME280;1347;42.122;24.746;2024-01-11T09:17:54;100338.09;;;17.17;34.87
2675;BME280;1347;42.122;24.746;2024-01-11T09:20:21;100333.47;;;16.35;35.28
2675;BME280;1347;42.122;24.746;2024-01-11T09:22:48;100327.03;;;14.73;37.46
2675;BME280;1347;42.122;24.746;2024-01-11T09:25:15;100325.69;;;14.97;37.45
2675;BME280;1347;42.122;24.746;2024-01-11T09:27:41;100327.56;;;13.67;39.12
2675;BME280;1347;42.122;24.746;2024-01-11T09:30:09;100311.97;;;13.06;41.43
2675;BME280;1347;42.122;24.746;2024-01-11T09:32:37;100311.31;;;14.78;38.52
2675;BME280;1347;42.122;24.746;2024-01-11T09:38:25;100310.94;;;14.79;38.51
2675;BME280;1347;42.122;24.746;2024-01-11T09:44:14;100298.09;;;15.96;38.02
2675;BME280;1347;42.122;24.746;2024-01-11T09:46:41;100278.88;;;14.34;39.99
2675;BME280;1347;42.122;24.746;2024-01-11T09:49:10;100280.53;;;14.09;39.31
2675;BME280;1347;42.122;24.746;2024-01-11T09:51:37;100267.09;;;16.60;36.86
2675;BME280;1347;42.122;24.746;2024-01-11T09:54:06;100278.59;;;18.03;33.87
2675;BME280;1347;42.122;24.746;2024-01-11T09:56:33;100264.41;;;16.81;35.09
2675;BME280;1347;42.122;24.746;2024-01-11T09:59:01;100253.41;;;15.83;36.41
2675;BME280;1347;42.122;24.746;2024-01-11T10:01:31;100253.19;;;16.24;35.96
2675;BME280;1347;42.122;24.746;2024-01-11T10:03:59;100247.66;;;16.24;35.93
2675;BME280;1347;42.122;24.746;2024-01-11T10:06:34;100241.38;;;15.03;36.43
2675;BME280;1347;42.122;24.746;2024-01-11T10:09:03;100241.22;;;13.85;37.66
2675;BME280;1347;42.122;24.746;2024-01-11T10:11:30;100232.34;;;12.48;39.50
2675;BME280;1347;42.122;24.746;2024-01-11T10:13:57;100227.09;;;11.31;42.33
2675;BME280;1347;42.122;24.746;2024-01-11T10:16:24;100218.94;;;8.83;47.58
2675;BME280;1347;42.122;24.746;2024-01-11T10:18:53;100209.94;;;8.83;47.22
2675;BME280;1347;42.122;24.746;2024-01-11T10:21:20;100211.06;;;8.70;48.23
2675;BME280;1347;42.122;24.746;2024-01-11T10:23:49;100199.59;;;8.31;49.13
2675;BME280;1347;42.122;24.746;2024-01-11T10:26:16;100190.34;;;7.28;52.07
2675;BME280;1347;42.122;24.746;2024-01-11T10:28:44;100183.56;;;7.05;52.46
2675;BME280;1347;42.122;24.746;2024-01-11T10:31:11;100185.00;;;6.35;56.25
2675;BME280;1347;42.122;24.746;2024-01-11T10:33:40;100172.91;;;5.46;58.80
2675;BME280;1347;42.122;24.746;2024-01-11T10:36:07;100175.00;;;5.75;56.75
2675;BME280;1347;42.122;24.746;2024-01-11T10:38:38;100167.31;;;5.43;58.84
2675;BME280;1347;42.122;24.746;2024-01-11T10:41:07;100163.78;;;5.34;59.23
2675;BME280;1347;42.122;24.746;2024-01-11T10:43:37;100150.81;;;5.13;61.75
2675;BME280;1347;42.122;24.746;2024-01-11T10:46:05;100153.53;;;5.05;61.67
2675;BME280;1347;42.122;24.746;2024-01-11T10:48:37;100146.97;;;4.97;60.85
2675;BME280;1347;42.122;24.746;2024-01-11T10:51:07;100138.91;;;4.75;61.39
2675;BME280;1347;42.122;24.746;2024-01-11T10:53:41;100140.81;;;4.66;64.12
2675;BME280;1347;42.122;24.746;2024-01-11T10:56:11;100123.69;;;4.57;65.68
2675;BME280;1347;42.122;24.746;2024-01-11T11:02:05;100112.66;;;4.53;63.22
2675;BME280;1347;42.122;24.746;2024-01-11T11:04:36;100116.25;;;4.40;63.75
2675;BME280;1347;42.122;24.746;2024-01-11T11:07:05;100111.34;;;4.51;64.03
2675;BME280;1347;42.122;24.746;2024-01-11T11:09:34;100111.03;;;4.52;63.17
2675;BME280;1347;42.122;24.746;2024-01-11T11:12:04;100104.31;;;4.50;63.60
2675;BME280;1347;42.122;24.746;2024-01-11T11:14:34;100096.34;;;4.53;63.89
2675;BME280;1347;42.122;24.746;2024-01-11T11:17:01;100089.19;;;4.57;64.25
2675;BME280;1347;42.122;24.746;2024-01-11T11:19:28;100089.66;;;4.59;63.35
2675;BME280;1347;42.122;24.746;2024-01-11T11:21:55;100093.34;;;4.63;64.06
2675;BME280;1347;42.122;24.746;2024-01-11T11:24:22;100088.72;;;4.55;64.37
2675;BME280;1347;42.122;24.746;2024-01-11T11:26:48;100079.56;;;4.51;64.47
2675;BME280;1347;42.122;24.746;2024-01-11T11:29:17;100078.63;;;4.47;63.97
2675;BME280;1347;42.122;24.746;2024-01-11T11:31:45;100071.41;;;4.42;64.01
2675;BME280;1347;42.122;24.746;2024-01-11T11:34:13;100069.16;;;4.36;63.58
2675;BME280;1347;42.122;24.746;2024-01-11T11:36:40;100062.28;;;4.38;63.38
2675;BME280;1347;42.122;24.746;2024-01-11T11:39:10;100051.31;;;4.43;63.73
2675;BME280;1347;42.122;24.746;2024-01-11T11:41:38;100049.41;;;4.53;62.31
2675;BME280;1347;42.122;24.746;2024-01-11T11:44:06;100041.13;;;4.58;62.41
2675;BME280;1347;42.122;24.746;2024-01-11T11:46:35;100035.22;;;4.56;62.71
2675;BME280;1347;42.122;24.746;2024-01-11T11:49:02;100026.88;;;4.43;62.66
2675;BME280;1347;42.122;24.746;2024-01-11T11:51:29;100023.19;;;4.48;64.44
2675;BME280;1347;42.122;24.746;2024-01-11T11:53:57;100018.09;;;4.47;63.36
2675;BME280;1347;42.122;24.746;2024-01-11T11:56:24;100018.56;;;4.40;62.93
2675;BME280;1347;42.122;24.746;2024-01-11T11:58:51;100003.75;;;4.46;61.54
2675;BME280;1347;42.122;24.746;2024-01-11T12:01:20;99998.94;;;4.43;62.46
2675;BME280;1347;42.122;24.746;2024-01-11T12:03:49;99991.44;;;4.49;62.21
2675;BME280;1347;42.122;24.746;2024-01-11T12:06:17;99988.88;;;4.52;62.00
2675;BME280;1347;42.122;24.746;2024-01-11T12:08:46;99975.78;;;4.46;63.12
2675;BME280;1347;42.122;24.746;2024-01-11T12:11:14;99970.69;;;4.53;62.78
2675;BME280;1347;42.122;24.746;2024-01-11T12:13:42;99970.53;;;4.66;61.61
2675;BME280;1347;42.122;24.746;2024-01-11T12:16:10;99964.31;;;4.66;61.42
2675;BME280;1347;42.122;24.746;2024-01-11T12:18:37;99956.16;;;4.57;62.11
2675;BME280;1347;42.122;24.746;2024-01-11T12:21:06;99955.69;;;4.55;62.01
2675;BME280;1347;42.122;24.746;2024-01-11T12:23:34;99956.31;;;4.61;61.91
2675;BME280;1347;42.122;24.746;2024-01-11T12:26:01;99955.50;;;4.69;61.58
2675;BME280;1347;42.122;24.746;2024-01-11T12:28:29;99956.31;;;4.69;62.28
2675;BME280;1347;42.122;24.746;2024-01-11T12:30:57;99946.25;;;4.70;60.86
2675;BME280;1347;42.122;24.746;2024-01-11T12:33:25;99944.03;;;4.63;63.15
2675;BME280;1347;42.122;24.746;2024-01-11T12:35:52;99936.19;;;4.53;61.75
2675;BME280;1347;42.122;24.746;2024-01-11T12:38:21;99933.47;;;4.62;60.38
2675;BME280;1347;42.122;24.746;2024-01-11T12:40:48;99932.84;;;4.56;61.05
2675;BME280;1347;42.122;24.746;2024-01-11T12:43:15;99924.69;;;4.65;61.43
2675;BME280;1347;42.122;24.746;2024-01-11T12:45:42;99924.06;;;4.76;60.44
2675;BME280;1347;42.122;24.746;2024-01-11T12:48:09;99919.44;;;4.77;60.25
2675;BME280;1347;42.122;24.746;2024-01-11T12:50:40;99916.84;;;4.89;59.95
2675;BME280;1347;42.122;24.746;2024-01-11T12:53:08;99919.72;;;4.93;59.54
2675;BME280;1347;42.122;24.746;2024-01-11T12:55:36;99916.84;;;4.89;59.72
2675;BME280;1347;42.122;24.746;2024-01-11T12:58:04;99913.66;;;4.96;59.83
2675;BME280;1347;42.122;24.746;2024-01-11T13:00:31;99911.88;;;4.91;60.94
2675;BME280;1347;42.122;24.746;2024-01-11T13:06:19;99914.94;;;4.98;60.93
2675;BME280;1347;42.122;24.746;2024-01-11T13:08:46;99917.91;;;5.14;61.13
2675;BME280;1347;42.122;24.746;2024-01-11T13:11:14;99900.88;;;4.79;65.95
2675;BME280;1347;42.122;24.746;2024-01-11T13:17:04;99898.47;;;4.69;67.92
2675;BME280;1347;42.122;24.746;2024-01-11T13:19:33;99899.00;;;4.54;69.28
2675;BME280;1347;42.122;24.746;2024-01-11T13:22:00;99887.31;;;4.53;69.38
2675;BME280;1347;42.122;24.746;2024-01-11T13:24:28;99888.28;;;4.74;66.60
2675;BME280;1347;42.122;24.746;2024-01-11T13:26:56;99877.09;;;4.67;65.36
2675;BME280;1347;42.122;24.746;2024-01-11T13:29:23;99879.00;;;4.50;68.23
2675;BME280;1347;42.122;24.746;2024-01-11T13:31:50;99877.59;;;4.43;68.69
2675;BME280;1347;42.122;24.746;2024-01-11T13:34:17;99870.25;;;4.53;66.88
2675;BME280;1347;42.122;24.746;2024-01-11T13:36:44;99869.59;;;4.38;68.21
2675;BME280;1347;42.122;24.746;2024-01-11T13:39:11;99862.59;;;4.55;67.56